Time;durP1;ratioP1;P1;durP2;ratioP2;P2;SDS_P1;SDS_P2;PMS_P1;PMS_P2;Temp;Humidity;BMP_temperature;BMP_pressure;BME280_temperature;BME280_humidity;BME280_pressure;Samples;Min_cycle;Max_cycle;Signal;HPM_P1;HPM_P2
2022/04/08 00:00:08;;;;;;;12.10;4.40;;;;;;;11.44;51.69;98722.77;117291;1185;23474;-60
2022/04/08 00:02:41;;;;;;;14.20;4.10;;;;;;;11.44;51.73;98720.84;117353;1186;21998;-50
2022/04/08 00:05:10;;;;;;;10.30;4.00;;;;;;;11.46;51.91;98724.10;117314;1186;21902;-60
2022/04/08 00:07:38;;;;;;;19.00;6.90;;;;;;;11.46;51.98;98720.59;117412;1185;24188;-59
2022/04/08 00:10:27;;;;;;;12.70;3.80;;;;;;;11.47;51.88;98715.99;117295;1188;21855;-49
2022/04/08 00:12:57;;;;;;;15.70;4.70;;;;;;;11.47;52.03;98711.77;117329;1181;22946;-59
2022/04/08 00:15:27;;;;;;;14.50;4.70;;;;;;;11.47;51.94;98711.42;117313;1186;23269;-59
2022/04/08 00:17:56;;;;;;;15.50;4.50;;;;;;;11.47;51.88;98712.66;117305;1185;21854;-59
2022/04/08 00:20:25;;;;;;;15.50;4.80;;;;;;;11.47;52.00;98711.61;117321;1186;23566;-49
2022/04/08 00:22:53;;;;;;;16.30;4.60;;;;;;;11.46;51.83;98712.15;117282;1182;21890;-59
2022/04/08 00:25:22;;;;;;;19.40;4.50;;;;;;;11.46;52.10;98715.66;117357;1181;21848;-49
2022/04/08 00:27:51;;;;;;;16.20;5.30;;;;;;;11.47;51.96;98719.33;117249;1186;23634;-49
2022/04/08 00:30:20;;;;;;;14.30;4.70;;;;;;;11.45;51.91;98724.48;117340;1186;23557;-49
2022/04/08 00:32:51;;;;;;;16.70;5.00;;;;;;;11.44;51.99;98728.40;117337;1186;24717;-60
2022/04/08 00:35:20;;;;;;;18.30;5.10;;;;;;;11.43;51.73;98723.70;117285;1184;21850;-50
2022/04/08 00:37:50;;;;;;;17.10;5.70;;;;;;;11.43;51.95;98719.66;117343;1186;23450;-49
2022/04/08 00:40:19;;;;;;;11.00;4.10;;;;;;;11.43;51.85;98720.88;117225;1186;21871;-49
2022/04/08 00:42:48;;;;;;;15.00;4.10;;;;;;;11.43;51.78;98712.26;117297;1186;24224;-49
2022/04/08 00:45:16;;;;;;;13.90;5.30;;;;;;;11.43;51.94;98704.72;117285;1185;24173;-60
2022/04/08 00:47:45;;;;;;;14.60;4.30;;;;;;;11.43;52.03;98699.80;117328;1186;22816;-49
2022/04/08 00:50:14;;;;;;;12.60;4.10;;;;;;;11.44;52.00;98693.98;117262;1189;21854;-49
2022/04/08 00:52:46;;;;;;;12.00;3.50;;;;;;;11.43;52.02;98690.49;117305;1185;22521;-60
2022/04/08 00:55:14;;;;;;;16.00;3.80;;;;;;;11.43;52.14;98688.05;117094;1186;21930;-60
2022/04/08 00:57:43;;;;;;;15.20;4.60;;;;;;;11.41;52.02;98691.45;117391;1186;22173;-49
2022/04/08 01:00:12;;;;;;;12.80;3.50;;;;;;;11.38;52.04;98692.63;117106;1187;21885;-49
2022/04/08 01:02:43;;;;;;;12.10;3.40;;;;;;;11.36;51.87;98691.14;117340;1185;21919;-49
2022/04/08 01:05:13;;;;;;;16.60;4.90;;;;;;;11.35;52.04;98693.48;117221;1186;21850;-58
2022/04/08 01:07:42;;;;;;;13.70;3.80;;;;;;;11.36;52.11;98695.55;117256;1186;24169;-49
2022/04/08 01:10:10;;;;;;;10.70;4.20;;;;;;;11.37;52.01;98696.92;117335;1184;21987;-60
2022/04/08 01:12:40;;;;;;;12.30;3.80;;;;;;;11.37;52.07;98701.80;117270;1186;21857;-60
2022/04/08 01:15:09;;;;;;;14.50;4.20;;;;;;;11.39;52.00;98709.46;117310;1186;21903;-49
2022/04/08 01:17:39;;;;;;;11.20;3.50;;;;;;;11.39;52.15;98711.56;117256;1186;23258;-59
2022/04/08 01:20:27;;;;;;;11.20;4.10;;;;;;;11.40;52.04;98715.93;117294;1187;21895;-50
2022/04/08 01:22:56;;;;;;;11.30;3.80;;;;;;;11.41;52.19;98713.25;117330;1181;22926;-49
2022/04/08 01:25:25;;;;;;;15.70;4.10;;;;;;;11.42;52.23;98716.01;117298;1186;23566;-59
2022/04/08 01:27:54;;;;;;;12.10;3.30;;;;;;;11.42;52.21;98715.64;117301;1185;23566;-49
2022/04/08 01:30:22;;;;;;;13.50;4.50;;;;;;;11.43;52.09;98712.63;117225;1186;24172;-49
2022/04/08 01:32:56;;;;;;;12.10;4.00;;;;;;;11.42;52.08;98711.06;117279;1185;24172;-49
2022/04/08 01:35:26;;;;;;;12.60;3.80;;;;;;;11.42;51.98;98711.78;117299;1186;22243;-49
2022/04/08 01:37:55;;;;;;;15.70;5.10;;;;;;;11.44;52.09;98709.42;117291;1185;21853;-59
2022/04/08 01:40:42;;;;;;;16.00;4.20;;;;;;;11.44;52.01;98703.09;117259;1181;22039;-50
2022/04/08 01:43:12;;;;;;;18.30;4.30;;;;;;;11.45;52.14;98703.23;117333;1186;21852;-60
2022/04/08 01:45:42;;;;;;;12.60;4.00;;;;;;;11.46;52.02;98699.33;117277;1186;22922;-59
2022/04/08 01:48:12;;;;;;;15.10;4.30;;;;;;;11.48;52.23;98696.30;117372;1186;21894;-49
2022/04/08 01:50:42;;;;;;;16.10;4.30;;;;;;;11.49;52.17;98691.13;117304;1186;22181;-59
2022/04/08 01:53:10;;;;;;;14.30;3.50;;;;;;;11.49;52.12;98690.92;117329;1185;23592;-50
2022/04/08 01:55:39;;;;;;;16.10;4.70;;;;;;;11.50;52.11;98690.20;117277;1186;24149;-59
2022/04/08 01:58:08;;;;;;;17.00;3.80;;;;;;;11.50;52.13;98689.83;117279;1185;22929;-59
2022/04/08 02:00:38;;;;;;;15.40;4.50;;;;;;;11.51;52.27;98685.42;117196;1186;24173;-59
2022/04/08 02:03:09;;;;;;;12.70;3.50;;;;;;;11.49;52.14;98684.79;117343;1186;21902;-59
2022/04/08 02:05:38;;;;;;;19.80;4.10;;;;;;;11.49;52.24;98680.77;117295;1186;22926;-49
2022/04/08 02:08:14;;;;;;;13.00;3.70;;;;;;;11.48;52.11;98683.09;117059;1186;23554;-50
2022/04/08 02:10:43;;;;;;;13.00;4.00;;;;;;;11.48;52.12;98683.12;117316;1185;21856;-60
2022/04/08 02:13:14;;;;;;;13.50;3.40;;;;;;;11.49;52.28;98681.10;117166;1186;23579;-59
2022/04/08 02:15:46;;;;;;;13.70;4.20;;;;;;;11.50;52.30;98681.23;117294;1185;23553;-60
2022/04/08 02:18:14;;;;;;;10.60;3.50;;;;;;;11.50;52.21;98678.60;117376;1187;21840;-59
2022/04/08 02:20:43;;;;;;;15.10;4.90;;;;;;;11.50;52.05;98681.77;117312;1187;21855;-49
2022/04/08 02:23:12;;;;;;;16.50;4.50;;;;;;;11.49;52.14;98681.97;117272;1186;23548;-59
2022/04/08 02:25:40;;;;;;;16.20;4.30;;;;;;;11.49;52.29;98680.06;117309;1185;21896;-59
2022/04/08 02:28:10;;;;;;;13.60;3.70;;;;;;;11.46;52.27;98678.24;117325;1186;23563;-60
2022/04/08 02:30:39;;;;;;;14.70;3.90;;;;;;;11.42;52.09;98676.11;117344;1186;23573;-59
2022/04/08 02:33:09;;;;;;;16.30;3.60;;;;;;;11.40;52.23;98679.91;117291;1185;23469;-59
2022/04/08 02:35:37;;;;;;;11.00;3.50;;;;;;;11.39;52.18;98679.95;117269;1186;22617;-57
2022/04/08 02:38:07;;;;;;;14.70;3.70;;;;;;;11.37;52.14;98678.63;117330;1186;23574;-49
2022/04/08 02:40:36;;;;;;;11.40;3.90;;;;;;;11.37;52.21;98682.67;117306;1186;24184;-49
2022/04/08 02:43:04;;;;;;;19.10;4.30;;;;;;;11.37;52.23;98683.73;117292;1186;23576;-59
2022/04/08 02:45:33;;;;;;;12.30;4.00;;;;;;;11.36;52.18;98678.83;117331;1186;22839;-59
2022/04/08 02:48:03;;;;;;;12.00;3.90;;;;;;;11.35;52.35;98674.84;117292;1185;23555;-49
2022/04/08 02:50:33;;;;;;;13.90;3.90;;;;;;;11.34;52.32;98672.08;117291;1186;22804;-49
2022/04/08 02:53:02;;;;;;;15.40;3.90;;;;;;;11.34;52.40;98675.07;117320;1185;21861;-60
2022/04/08 02:55:31;;;;;;;13.50;4.10;;;;;;;11.34;52.36;98678.05;117220;1186;21855;-59
2022/04/08 02:58:02;;;;;;;12.00;4.50;;;;;;;11.34;52.29;98679.98;117259;1186;22842;-59
2022/04/08 03:00:30;;;;;;;15.50;3.50;;;;;;;11.34;52.18;98686.31;117343;1181;22930;-49
2022/04/08 03:02:59;;;;;;;13.90;4.30;;;;;;;11.32;52.25;98687.10;117267;1186;22626;-60
2022/04/08 03:05:29;;;;;;;14.00;3.50;;;;;;;11.28;52.26;98688.10;117288;1186;22311;-59
2022/04/08 03:07:57;;;;;;;10.80;3.80;;;;;;;11.24;52.19;98689.55;117333;1184;21851;-59
2022/04/08 03:10:26;;;;;;;12.30;3.80;;;;;;;11.21;52.24;98693.20;117327;1186;23568;-50
2022/04/08 03:12:56;;;;;;;15.10;4.50;;;;;;;11.19;52.45;98693.61;117253;1186;23562;-48
2022/04/08 03:15:25;;;;;;;15.10;4.10;;;;;;;11.20;52.48;98695.14;117241;1186;23456;-58
2022/04/08 03:17:54;;;;;;;14.00;3.50;;;;;;;11.25;52.39;98698.45;117215;1186;21850;-59
2022/04/08 03:20:23;;;;;;;16.90;4.50;;;;;;;11.29;52.24;98700.57;117265;1185;23018;-50
2022/04/08 03:22:52;;;;;;;15.20;3.60;;;;;;;11.25;52.31;98697.75;117386;1185;22842;-59
2022/04/08 03:25:21;;;;;;;13.50;4.30;;;;;;;11.24;52.31;98696.05;117356;1185;23567;-49
2022/04/08 03:27:49;;;;;;;14.70;4.00;;;;;;;11.21;52.31;98697.05;117308;1186;23331;-49
2022/04/08 03:30:17;;;;;;;13.70;3.90;;;;;;;11.19;52.40;98694.86;117190;1186;24173;-59
2022/04/08 03:32:47;;;;;;;14.60;3.60;;;;;;;11.16;52.44;98692.67;117288;1186;24229;-59
2022/04/08 03:35:15;;;;;;;16.60;4.80;;;;;;;11.14;52.41;98699.05;117311;1186;24162;-53
2022/04/08 03:37:44;;;;;;;18.20;5.00;;;;;;;11.15;52.43;98702.02;117286;1181;21854;-59
2022/04/08 03:40:14;;;;;;;10.70;3.70;;;;;;;11.16;52.46;98704.25;117312;1185;23465;-59
2022/04/08 03:42:43;;;;;;;16.30;5.00;;;;;;;11.19;52.61;98699.60;117305;1187;21860;-48
2022/04/08 03:45:13;;;;;;;14.90;4.10;;;;;;;11.20;52.52;98697.77;117220;1186;23595;-60
2022/04/08 03:47:42;;;;;;;19.20;3.80;;;;;;;11.21;52.51;98698.79;117192;1185;23638;-48
2022/04/08 03:50:11;;;;;;;17.10;3.80;;;;;;;11.22;52.46;98699.65;117306;1185;22902;-60
2022/04/08 03:52:42;;;;;;;17.60;4.60;;;;;;;11.21;52.34;98698.95;117346;1186;21900;-49
2022/04/08 03:55:11;;;;;;;14.50;4.50;;;;;;;11.23;52.47;98698.73;117360;1186;21848;-60
2022/04/08 03:57:39;;;;;;;21.80;5.40;;;;;;;11.22;52.52;98701.20;117276;1185;24246;-49
2022/04/08 04:00:08;;;;;;;13.80;4.40;;;;;;;11.23;52.50;98701.88;117278;1185;24158;-59
2022/04/08 04:02:37;;;;;;;22.70;4.50;;;;;;;11.24;52.38;98709.20;117397;1185;21864;-59
2022/04/08 04:05:07;;;;;;;17.80;5.10;;;;;;;11.25;52.51;98714.77;117409;1185;23449;-49
2022/04/08 04:07:36;;;;;;;17.10;4.40;;;;;;;11.29;52.52;98717.75;117246;1186;22623;-48
2022/04/08 04:10:06;;;;;;;;;;;;;;;11.32;52.53;98714.67;117215;1186;22205;-59
2022/04/08 04:12:35;;;;;;;15.30;4.10;;;;;;;11.32;52.54;98712.20;117289;1185;24227;-49
2022/04/08 04:15:08;;;;;;;15.60;4.10;;;;;;;11.29;52.45;98714.23;117067;1186;23576;-59
2022/04/08 04:17:36;;;;;;;15.50;4.30;;;;;;;11.29;52.41;98720.77;117333;1186;21837;-59
2022/04/08 04:20:28;;;;;;;21.90;4.60;;;;;;;11.26;52.49;98733.52;117268;1188;21842;-59
2022/04/08 04:22:57;;;;;;;13.70;4.10;;;;;;;11.24;52.39;98736.77;117284;1185;22983;-49
2022/04/08 04:25:28;;;;;;;17.00;7.00;;;;;;;11.23;52.53;98744.73;117179;1186;23552;-59
2022/04/08 04:27:57;;;;;;;14.80;4.40;;;;;;;11.23;52.52;98749.48;117314;1186;23552;-59
2022/04/08 04:30:27;;;;;;;13.40;4.00;;;;;;;11.22;52.56;98750.88;117293;1186;23553;-49
2022/04/08 04:32:56;;;;;;;16.20;4.70;;;;;;;11.22;52.57;98749.84;117349;1186;23555;-59
2022/04/08 04:35:26;;;;;;;16.60;3.70;;;;;;;11.23;52.68;98758.77;117306;1186;22926;-59
2022/04/08 04:37:55;;;;;;;15.50;4.40;;;;;;;11.24;52.74;98761.52;117341;1185;22426;-60
2022/04/08 04:40:25;;;;;;;14.80;4.80;;;;;;;11.25;52.66;98762.34;117329;1181;21842;-59
2022/04/08 04:42:55;;;;;;;17.40;6.70;;;;;;;11.26;52.63;98759.14;117330;1186;21860;-49
2022/04/08 04:45:24;;;;;;;18.10;5.20;;;;;;;11.26;52.62;98759.30;117282;1186;21885;-49
2022/04/08 04:47:53;;;;;;;13.20;4.50;;;;;;;11.28;52.60;98760.83;117315;1186;23553;-49
2022/04/08 04:50:23;;;;;;;17.60;4.60;;;;;;;11.30;52.86;98758.50;117276;1185;23554;-59
2022/04/08 04:52:56;;;;;;;21.30;5.20;;;;;;;11.32;52.82;98758.59;117205;1186;21854;-59
2022/04/08 04:55:24;;;;;;;19.90;5.70;;;;;;;11.35;52.80;98765.83;117204;1186;23640;-59
2022/04/08 04:57:53;;;;;;;21.80;4.60;;;;;;;11.36;52.59;98764.91;117304;1185;23449;-48
2022/04/08 05:00:22;;;;;;;15.80;4.60;;;;;;;11.37;52.74;98770.66;117320;1186;23627;-58
2022/04/08 05:02:52;;;;;;;24.90;8.40;;;;;;;11.40;52.80;98777.54;117280;1187;21850;-59
2022/04/08 05:05:21;;;;;;;17.40;4.80;;;;;;;11.48;52.89;98775.29;117131;1184;24178;-60
2022/04/08 05:08:03;;;;;;;37.60;15.00;;;;;;;11.53;53.05;98780.35;117320;1186;23542;-49
2022/04/08 05:10:32;;;;;;;47.90;21.10;;;;;;;11.64;53.15;98781.32;117297;1186;21847;-49
2022/04/08 05:13:01;;;;;;;41.60;15.40;;;;;;;11.79;53.17;98781.88;117312;1187;21909;-49
2022/04/08 05:15:38;;;;;;;26.80;14.30;;;;;;;11.92;53.17;98783.81;117420;1179;21842;-49
2022/04/08 05:18:06;;;;;;;25.20;11.00;;;;;;;12.04;53.35;98780.34;117340;1185;23637;-49
2022/04/08 05:20:55;;;;;;;27.70;10.70;;;;;;;12.14;53.43;98785.38;117269;1185;21854;-59
2022/04/08 05:23:29;;;;;;;21.60;8.20;;;;;;;12.22;53.30;98782.73;117301;1185;21889;-49
2022/04/08 05:25:58;;;;;;;20.00;7.80;;;;;;;12.27;53.12;98787.06;117271;1185;23476;-59
2022/04/08 05:28:27;;;;;;;29.20;8.60;;;;;;;12.34;53.27;98791.84;119356;1185;21773;-51
2022/04/08 05:30:55;;;;;;;27.50;7.20;;;;;;;12.43;53.24;98792.16;119212;1186;21897;-59
2022/04/08 05:33:24;;;;;;;19.80;5.70;;;;;;;12.49;53.25;98796.98;117207;1186;24291;-59
2022/04/08 05:35:53;;;;;;;13.80;5.30;;;;;;;12.53;53.08;98800.17;117220;1186;23652;-49
2022/04/08 05:38:23;;;;;;;18.60;4.50;;;;;;;12.52;52.87;98803.04;117210;1186;22916;-59
2022/04/08 05:40:51;;;;;;;20.10;5.30;;;;;;;12.50;52.96;98802.76;117244;1186;21863;-56
2022/04/08 05:43:20;;;;;;;18.90;5.00;;;;;;;12.52;52.98;98804.61;117277;1186;22646;-59
2022/04/08 05:45:49;;;;;;;17.80;5.30;;;;;;;12.55;53.15;98802.17;117069;1186;23467;-59
2022/04/08 05:48:17;;;;;;;15.90;4.50;;;;;;;12.61;52.95;98804.36;117212;1186;24237;-49
2022/04/08 05:50:47;;;;;;;22.00;6.10;;;;;;;12.63;52.84;98803.57;117245;1185;22243;-49
2022/04/08 05:53:16;;;;;;;21.20;4.70;;;;;;;12.63;53.14;98806.20;118007;1185;21983;-58
2022/04/08 05:56:03;;;;;;;21.50;5.40;;;;;;;12.60;53.05;98812.84;117035;1186;24162;-49
2022/04/08 05:58:33;;;;;;;26.90;4.70;;;;;;;12.56;53.02;98814.62;117110;1186;21854;-59
2022/04/08 06:01:02;;;;;;;19.30;4.60;;;;;;;12.52;52.97;98819.90;117113;1186;23553;-59
2022/04/08 06:03:31;;;;;;;17.70;4.40;;;;;;;12.45;52.93;98814.22;117298;1186;23547;-49
2022/04/08 06:06:00;;;;;;;19.60;4.70;;;;;;;12.38;52.80;98818.42;117242;1186;23830;-59
2022/04/08 06:08:30;;;;;;;19.00;5.10;;;;;;;12.32;52.79;98824.49;117170;1189;21884;-49
2022/04/08 06:10:58;;;;;;;20.00;4.90;;;;;;;12.27;52.66;98832.81;117121;1186;21855;-61
2022/04/08 06:13:28;;;;;;;14.90;4.60;;;;;;;12.21;52.85;98839.90;117144;1186;24173;-49
2022/04/08 06:16:17;;;;;;;19.10;4.50;;;;;;;12.13;52.61;98839.52;117041;1186;24172;-48
2022/04/08 06:18:48;;;;;;;20.60;6.30;;;;;;;12.11;52.74;98844.02;117155;1186;21844;-61
2022/04/08 06:21:33;;;;;;;17.00;5.00;;;;;;;12.10;52.80;98850.58;117015;1186;22579;-49
2022/04/08 06:24:03;;;;;;;;;;;;;;;12.06;52.99;98861.27;117189;1186;24142;-49
2022/04/08 06:26:34;;;;;;;21.40;4.20;;;;;;;12.03;52.79;98865.13;117057;1187;24154;-50
2022/04/08 06:29:04;;;;;;;14.70;4.00;;;;;;;12.00;52.85;98865.23;117205;1185;23705;-59
2022/04/08 06:31:33;;;;;;;15.70;4.00;;;;;;;11.99;52.88;98868.77;117101;1186;21855;-58
2022/04/08 06:34:02;;;;;;;31.10;6.10;;;;;;;11.99;52.94;98866.83;117217;1186;22892;-59
2022/04/08 06:36:32;;;;;;;15.70;4.70;;;;;;;12.01;53.02;98864.84;117222;1186;23580;-49
2022/04/08 06:39:00;;;;;;;17.90;5.10;;;;;;;12.04;52.91;98867.87;117247;1186;21854;-49
2022/04/08 06:41:30;;;;;;;25.70;4.30;;;;;;;12.03;53.04;98865.13;117165;1186;24794;-49
2022/04/08 06:43:59;;;;;;;27.50;4.60;;;;;;;12.14;53.15;98872.59;117221;1186;23553;-49
2022/04/08 06:46:28;;;;;;;18.20;4.60;;;;;;;12.22;53.02;98883.83;117290;1186;23552;-60
2022/04/08 06:49:02;;;;;;;22.80;5.40;;;;;;;12.29;52.99;98882.30;117207;1186;24287;-61
2022/04/08 06:51:31;;;;;;;15.40;4.00;;;;;;;12.33;53.06;98886.88;117062;1186;21889;-49
2022/04/08 06:54:00;;;;;;;19.70;4.70;;;;;;;12.32;53.05;98884.98;117122;1186;21860;-59
2022/04/08 06:56:29;;;;;;;22.10;6.50;;;;;;;12.40;52.85;98889.58;117922;1186;24166;-49
2022/04/08 06:58:57;;;;;;;12.10;3.60;;;;;;;12.45;53.01;98894.79;117604;1181;21921;-58
2022/04/08 07:01:26;;;;;;;14.30;4.10;;;;;;;12.47;52.97;98897.36;117062;1186;21860;-59
2022/04/08 07:03:54;;;;;;;18.30;5.50;;;;;;;12.47;52.82;98902.98;117115;1186;21900;-58
2022/04/08 07:06:23;;;;;;;16.00;4.80;;;;;;;12.47;52.79;98907.55;117233;1186;23620;-48
2022/04/08 07:09:12;;;;;;;35.70;17.60;;;;;;;12.49;52.92;98909.91;117081;1187;21858;-59
2022/04/08 07:11:41;;;;;;;27.70;14.60;;;;;;;12.52;52.86;98903.45;117118;1186;21919;-49
2022/04/08 07:14:10;;;;;;;29.30;8.60;;;;;;;12.58;53.11;98907.10;117265;1186;21859;-49
2022/04/08 07:16:41;;;;;;;18.00;5.70;;;;;;;12.66;53.15;98908.46;118583;1186;21855;-49
2022/04/08 07:19:22;;;;;;;20.30;4.50;;;;;;;12.77;53.15;98909.39;117197;1186;23477;-50
2022/04/08 07:21:51;;;;;;;15.30;4.10;;;;;;;12.94;53.30;98910.06;117299;1186;23465;-59
2022/04/08 07:24:22;;;;;;;15.20;4.00;;;;;;;13.14;53.46;98919.89;117246;1184;21866;-59
2022/04/08 07:26:51;;;;;;;12.60;4.10;;;;;;;13.32;53.50;98917.14;117249;1186;23557;-59
2022/04/08 07:29:19;;;;;;;16.40;5.00;;;;;;;13.46;53.64;98918.41;117240;1186;21853;-49
2022/04/08 07:31:48;;;;;;;16.80;4.30;;;;;;;13.64;53.66;98913.53;117261;1186;23476;-59
2022/04/08 07:34:18;;;;;;;14.60;3.90;;;;;;;13.86;53.76;98910.89;117207;1186;23566;-59
2022/04/08 07:36:47;;;;;;;11.30;3.40;;;;;;;14.09;53.92;98902.52;117804;1184;23568;-49
2022/04/08 07:39:17;;;;;;;13.90;4.50;;;;;;;14.38;54.01;98900.86;117210;1186;22933;-49
2022/04/08 07:41:46;;;;;;;12.90;4.30;;;;;;;14.71;54.33;98901.51;117102;1186;21899;-59
2022/04/08 07:44:15;;;;;;;12.90;4.20;;;;;;;15.01;54.16;98895.49;117212;1186;22919;-49
2022/04/08 07:46:46;;;;;;;9.90;3.70;;;;;;;15.28;54.09;98886.09;117238;1186;24727;-59
2022/04/08 07:49:16;;;;;;;;;;;;;;;15.40;53.70;98871.64;117214;1186;24244;-59
2022/04/08 07:51:45;;;;;;;13.40;4.40;;;;;;;15.49;53.68;98872.52;117068;1187;24154;-49
2022/04/08 07:54:13;;;;;;;12.80;3.50;;;;;;;15.64;53.75;98878.92;117235;1186;23448;-59
2022/04/08 07:56:50;;;;;;;13.80;4.40;;;;;;;15.84;53.83;98881.48;117196;1186;23555;-49
2022/04/08 07:59:20;;;;;;;10.30;3.40;;;;;;;16.10;53.97;98887.12;117224;1186;23691;-59
2022/04/08 08:01:51;;;;;;;10.90;3.40;;;;;;;16.43;54.08;98897.36;117177;1186;21868;-51
2022/04/08 08:04:22;;;;;;;11.80;3.70;;;;;;;16.64;53.82;98896.67;118445;1186;21809;-52
2022/04/08 08:06:50;;;;;;;14.50;4.50;;;;;;;16.74;53.55;98904.92;119275;1186;21825;-63
2022/04/08 08:09:18;;;;;;;14.70;4.40;;;;;;;16.72;53.19;98914.74;119288;1185;21768;-59
2022/04/08 08:12:26;;;;;;;13.00;3.50;;;;;;;16.57;52.90;98923.09;118118;1186;22643;-57
2022/04/08 08:14:56;;;;;;;11.20;3.40;;;;;;;16.43;52.66;98936.45;119035;1186;22326;-60
2022/04/08 08:17:45;;;;;;;11.80;2.90;;;;;;;16.23;52.61;98935.74;117219;1186;21852;-50
2022/04/08 08:20:14;;;;;;;13.40;3.60;;;;;;;16.09;52.48;98940.75;119175;1186;21783;-59
2022/04/08 08:22:43;;;;;;;10.70;3.30;;;;;;;15.96;52.53;98936.06;119177;1186;21777;-52
2022/04/08 08:25:13;;;;;;;12.30;3.70;;;;;;;15.93;52.66;98935.13;119325;1185;21771;-52
2022/04/08 08:27:42;;;;;;;13.50;3.00;;;;;;;15.89;52.62;98938.76;119275;1186;21786;-59
2022/04/08 08:30:12;;;;;;;15.30;4.40;;;;;;;15.88;52.58;98950.98;119262;1185;21762;-59
2022/04/08 08:32:43;;;;;;;11.40;3.40;;;;;;;15.81;52.41;98957.05;119281;1186;22347;-52
2022/04/08 08:35:13;;;;;;;12.60;2.70;;;;;;;15.72;52.48;98961.57;119276;1185;21777;-52
2022/04/08 08:37:43;;;;;;;;;;;;;;;15.67;52.43;98969.13;119285;1186;22134;-59
2022/04/08 08:40:12;;;;;;;14.10;3.80;;;;;;;15.63;52.37;98972.18;119211;1186;21907;-59
2022/04/08 08:42:42;;;;;;;7.10;3.00;;;;;;;15.57;52.38;98972.52;119192;1186;21797;-59
2022/04/08 08:45:11;;;;;;;14.70;3.20;;;;;;;15.59;52.43;98971.32;119135;1186;21765;-59
2022/04/08 08:47:39;;;;;;;12.10;4.40;;;;;;;15.61;52.49;98967.66;119269;1183;21792;-62
2022/04/08 08:50:09;;;;;;;15.80;4.40;;;;;;;15.63;52.40;98970.25;119116;1187;21820;-51
2022/04/08 08:52:38;;;;;;;12.00;4.00;;;;;;;15.62;52.46;98969.23;119047;1185;21851;-59
2022/04/08 08:55:06;;;;;;;18.20;6.10;;;;;;;15.62;52.47;98968.33;117640;1186;22204;-52
2022/04/08 08:57:35;;;;;;;16.90;6.30;;;;;;;15.63;52.46;98978.91;119264;1186;21849;-59
2022/04/08 09:00:12;;;;;;;16.50;5.20;;;;;;;15.66;52.60;98977.32;119215;1186;21821;-52
2022/04/08 09:02:48;;;;;;;;;;;;;;;15.77;52.56;98975.11;118092;1186;21835;-59
2022/04/08 09:05:21;;;;;;;13.50;4.50;;;;;;;15.84;52.54;98977.36;119237;1186;21775;-52
2022/04/08 09:08:00;;;;;;;20.30;4.70;;;;;;;15.96;52.69;98982.53;119138;1183;21780;-51
2022/04/08 09:10:33;;;;;;;12.80;4.00;;;;;;;16.13;52.63;98993.09;119191;1186;21786;-52
2022/04/08 09:13:04;;;;;;;14.20;3.50;;;;;;;16.30;52.66;98994.64;119312;1186;21782;-54
2022/04/08 09:15:43;;;;;;;14.10;4.10;;;;;;;16.42;52.57;98992.34;119207;1186;21812;-59
2022/04/08 09:18:13;;;;;;;15.90;3.70;;;;;;;16.56;52.62;98984.27;119201;1186;21760;-52
2022/04/08 09:20:48;;;;;;;12.80;3.40;;;;;;;16.72;52.67;98984.88;119318;1186;21789;-62
2022/04/08 09:23:36;;;;;;;14.30;3.90;;;;;;;16.98;52.76;98987.05;117521;1186;22312;-59
2022/04/08 09:26:07;;;;;;;12.50;4.00;;;;;;;17.16;52.78;98976.09;118976;1186;22363;-62
2022/04/08 09:28:37;;;;;;;15.80;4.60;;;;;;;17.35;52.75;98977.14;119308;1183;21779;-60
2022/04/08 09:31:30;;;;;;;15.20;4.40;;;;;;;17.48;52.56;98973.71;119195;1186;21779;-59
2022/04/08 09:33:59;;;;;;;11.10;3.70;;;;;;;17.59;52.58;98984.76;117457;1186;23643;-59
2022/04/08 09:36:30;;;;;;;12.20;3.80;;;;;;;17.71;52.36;98992.16;119025;1185;21853;-51
2022/04/08 09:38:59;;;;;;;14.90;3.90;;;;;;;17.80;52.22;98979.34;117737;1186;22942;-54
2022/04/08 09:41:49;;;;;;;12.30;3.70;;;;;;;17.86;52.28;98970.59;116944;1186;22031;-59
2022/04/08 09:44:24;;;;;;;8.70;4.40;;;;;;;18.18;52.60;98966.44;117127;1185;22575;-59
2022/04/08 09:46:52;;;;;;;13.00;4.20;;;;;;;18.43;52.56;98954.64;119283;1186;22506;-55
2022/04/08 09:49:22;;;;;;;9.40;3.40;;;;;;;18.63;52.33;98961.66;119297;1185;22096;-53
2022/04/08 09:51:52;;;;;;;11.80;3.90;;;;;;;18.83;52.47;98955.98;119225;1186;22120;-53
2022/04/08 09:54:22;;;;;;;12.90;3.70;;;;;;;19.15;52.68;98948.30;117929;1188;22643;-52
2022/04/08 09:56:50;;;;;;;17.10;4.20;;;;;;;19.58;52.91;98944.02;117139;1186;21850;-50
2022/04/08 09:59:23;;;;;;;10.90;3.20;;;;;;;19.99;52.69;98942.88;117039;1187;23573;-59
2022/04/08 10:02:15;;;;;;;13.50;3.80;;;;;;;20.27;52.37;98946.63;117175;1186;23554;-52
2022/04/08 10:04:48;;;;;;;11.00;3.30;;;;;;;20.53;52.01;98948.80;117148;1186;21843;-52
2022/04/08 10:07:16;;;;;;;14.90;4.60;;;;;;;20.61;51.90;98946.73;117180;1187;22647;-50
2022/04/08 10:10:01;;;;;;;10.50;3.50;;;;;;;20.83;52.11;98943.68;117252;1185;23028;-52
2022/04/08 10:12:40;;;;;;;9.90;3.60;;;;;;;21.01;51.86;98942.10;117219;1186;24152;-59
2022/04/08 10:15:16;;;;;;;17.40;4.10;;;;;;;21.17;51.95;98947.09;117266;1185;21846;-52
2022/04/08 10:17:57;;;;;;;16.60;4.10;;;;;;;21.48;52.22;98947.27;117173;1186;21852;-59
2022/04/08 10:20:30;;;;;;;11.30;3.80;;;;;;;21.80;51.96;98938.50;117053;1186;21854;-59
2022/04/08 10:23:06;;;;;;;13.20;3.90;;;;;;;21.93;51.66;98924.98;117142;1186;23203;-52
2022/04/08 10:25:40;;;;;;;8.50;2.90;;;;;;;22.19;51.82;98925.84;117216;1186;23479;-59
2022/04/08 10:28:10;;;;;;;8.80;3.20;;;;;;;22.57;51.84;98925.36;117104;1186;24248;-59
2022/04/08 10:30:47;;;;;;;8.10;3.20;;;;;;;23.01;51.84;98926.39;117015;1186;22806;-60
2022/04/08 10:33:27;;;;;;;13.70;3.50;;;;;;;23.28;51.36;98923.19;117002;1186;23454;-52
2022/04/08 10:36:01;;;;;;;14.30;4.50;;;;;;;23.52;51.06;98932.91;117108;1186;23449;-53
2022/04/08 10:38:37;;;;;;;11.70;3.20;;;;;;;23.70;51.03;98938.63;117316;1189;21856;-59
2022/04/08 10:41:12;;;;;;;8.70;2.80;;;;;;;23.64;50.51;98941.66;117280;1186;21842;-55
2022/04/08 10:43:49;;;;;;;10.90;2.70;;;;;;;23.25;50.16;98945.85;117291;1186;21864;-59
2022/04/08 10:46:29;;;;;;;6.60;2.10;;;;;;;23.10;50.25;98950.73;117305;1186;21868;-59
2022/04/08 10:48:58;;;;;;;8.80;3.00;;;;;;;23.04;50.18;98953.00;117338;1186;21945;-52
2022/04/08 10:51:30;;;;;;;11.70;4.30;;;;;;;23.03;50.11;98945.70;117331;1187;23452;-52
2022/04/08 10:54:04;;;;;;;5.70;2.00;;;;;;;23.19;50.54;98945.27;117285;1186;23555;-60
2022/04/08 10:56:36;;;;;;;8.70;2.50;;;;;;;23.30;50.21;98950.59;117282;1182;21860;-59
2022/04/08 10:59:06;;;;;;;10.40;2.90;;;;;;;23.29;49.86;98952.30;117153;1185;21852;-53
2022/04/08 11:01:46;;;;;;;11.10;3.00;;;;;;;23.24;49.66;98953.23;117256;1186;21850;-53
2022/04/08 11:04:19;;;;;;;6.50;1.90;;;;;;;23.13;49.21;98961.64;119381;1185;21836;-65
2022/04/08 11:06:48;;;;;;;8.50;2.20;;;;;;;22.96;49.18;98954.70;119363;1185;21759;-61
2022/04/08 11:09:17;;;;;;;9.40;3.00;;;;;;;23.15;49.59;98938.83;119346;1185;21812;-54
2022/04/08 11:12:06;;;;;;;6.70;1.90;;;;;;;23.61;49.77;98923.27;119384;1182;22318;-54
2022/04/08 11:14:38;;;;;;;8.70;2.30;;;;;;;23.93;49.55;98927.77;119358;1184;21767;-60
2022/04/08 11:17:07;;;;;;;8.40;3.10;;;;;;;24.14;49.45;98940.23;119341;1185;21831;-60
2022/04/08 11:19:37;;;;;;;7.10;2.20;;;;;;;24.38;49.59;98938.37;119360;1185;21775;-60
2022/04/08 11:22:26;;;;;;;9.80;2.70;;;;;;;24.59;49.35;98938.05;119337;1184;22087;-60
2022/04/08 11:24:59;;;;;;;7.90;2.30;;;;;;;24.84;49.44;98945.81;119336;1185;21745;-60
2022/04/08 11:27:32;;;;;;;8.80;2.20;;;;;;;25.06;48.93;98952.38;119147;1185;21773;-54
2022/04/08 11:30:07;;;;;;;7.20;2.40;;;;;;;24.86;48.47;98943.77;119303;1184;21829;-54
2022/04/08 11:32:39;;;;;;;6.90;2.60;;;;;;;24.52;48.30;98943.26;119236;1186;22158;-54
2022/04/08 11:35:14;;;;;;;7.60;2.40;;;;;;;24.52;48.40;98949.36;117356;1185;22920;-53
2022/04/08 11:37:43;;;;;;;7.40;2.70;;;;;;;24.44;48.19;98954.57;117315;1182;21842;-53